Time;durP1;ratioP1;P1;durP2;ratioP2;P2;SDS_P1;SDS_P2;PMS_P1;PMS_P2;Temp;Humidity;BMP_temperature;BMP_pressure;BME280_temperature;BME280_humidity;BME280_pressure;Samples;Min_cycle;Max_cycle;Signal;HPM_P1;HPM_P2
2023/05/24 00:01:24;;;;;;;9.48;4.65;;;;;;;17.30;71.81;151630.91;5023553;28;20034;-69
2023/05/24 00:03:51;;;;;;;10.50;5.00;;;;;;;17.35;72.29;151643.75;5038996;28;20084;-72
2023/05/24 00:06:17;;;;;;;6.45;4.22;;;;;;;17.33;72.68;151637.31;5032371;28;20065;-72
2023/05/24 00:08:43;;;;;;;10.13;4.82;;;;;;;17.30;72.25;151630.91;5029322;28;20029;-71
2023/05/24 00:11:10;;;;;;;8.25;4.78;;;;;;;17.28;72.35;151625.72;5043363;28;20049;-72
2023/05/24 00:13:36;;;;;;;7.47;4.80;;;;;;;17.27;73.19;151623.13;5043050;28;20055;-72
2023/05/24 00:16:02;;;;;;;6.07;4.65;;;;;;;17.21;73.31;151608.97;5026670;28;20100;-73
2023/05/24 00:18:30;;;;;;;9.25;5.28;;;;;;;17.23;72.95;151614.13;5036083;28;20017;-72
2023/05/24 00:20:58;;;;;;;8.88;4.65;;;;;;;17.26;73.79;151620.59;5043318;28;20199;-74
2023/05/24 00:23:24;;;;;;;12.05;5.40;;;;;;;17.27;73.11;151623.13;5039927;28;20029;-72
2023/05/24 00:25:51;;;;;;;13.57;5.43;;;;;;;17.26;73.42;151620.59;5028732;28;20029;-74
2023/05/24 00:28:17;;;;;;;8.05;5.22;;;;;;;17.34;73.89;151641.19;5044022;28;20093;-74
2023/05/24 00:30:42;;;;;;;10.98;5.38;;;;;;;17.30;73.82;151629.59;5028654;28;20242;-73
2023/05/24 00:33:08;;;;;;;10.88;5.40;;;;;;;17.19;73.97;151603.81;5032778;28;20029;-74
2023/05/24 00:35:34;;;;;;;11.00;5.35;;;;;;;17.19;73.61;151603.81;5038528;28;20210;-74
2023/05/24 00:37:59;;;;;;;10.77;5.65;;;;;;;17.22;73.54;151610.28;5023462;28;20030;-72
2023/05/24 00:40:25;;;;;;;9.93;4.55;;;;;;;17.30;74.03;151629.59;5032904;28;20183;-73
2023/05/24 00:42:51;;;;;;;9.85;5.43;;;;;;;17.29;74.02;151628.31;5020709;28;20037;-72
2023/05/24 00:45:16;;;;;;;8.88;5.65;;;;;;;17.26;74.30;151620.59;5032893;28;20258;-73
2023/05/24 00:47:42;;;;;;;8.02;5.05;;;;;;;17.30;74.28;151629.59;5012442;28;20021;-72
2023/05/24 00:50:11;;;;;;;8.95;5.38;;;;;;;17.27;75.12;151623.13;5043339;28;20032;-72
2023/05/24 00:52:39;;;;;;;7.82;4.93;;;;;;;17.22;74.54;151610.28;5024635;28;20038;-72
2023/05/24 00:55:06;;;;;;;10.57;5.10;;;;;;;17.25;75.11;151618.00;5041209;28;20364;-70
2023/05/24 00:57:33;;;;;;;12.20;5.60;;;;;;;17.13;74.74;151587.06;5032050;28;20022;-72
2023/05/24 00:59:59;;;;;;;12.63;6.38;;;;;;;17.12;74.37;151584.50;5032692;28;20032;-71
2023/05/24 01:02:25;;;;;;;10.73;6.00;;;;;;;17.12;74.37;151584.50;5040304;28;20018;-72
2023/05/24 01:04:51;;;;;;;9.52;6.30;;;;;;;17.13;74.08;151587.06;5005228;28;20034;-70
2023/05/24 01:07:36;;;;;;;8.35;4.95;;;;;;;17.19;75.31;151602.56;5041044;28;20230;-70
2023/05/24 01:10:19;;;;;;;8.13;5.75;;;;;;;17.18;74.54;151601.22;5026256;28;20507;-72
2023/05/24 01:12:57;;;;;;;11.52;6.10;;;;;;;17.15;74.49;151592.22;5036819;28;20100;-70
2023/05/24 01:15:46;;;;;;;9.95;6.15;;;;;;;17.11;74.06;151581.91;5031642;28;20033;-71
2023/05/24 01:18:56;;;;;;;6.55;5.45;;;;;;;17.19;75.36;151602.56;5034044;28;20318;-71
2023/05/24 01:22:08;;;;;;;8.15;5.60;;;;;;;17.18;75.59;151601.22;4947034;29;20035;-72
2023/05/24 01:25:02;;;;;;;7.68;6.70;;;;;;;17.19;75.47;151603.81;4911852;29;20071;-72
2023/05/24 01:27:32;;;;;;;11.20;6.13;;;;;;;17.07;77.15;151572.88;4943175;29;20058;-72
2023/05/24 01:30:00;;;;;;;12.48;6.50;;;;;;;17.10;76.82;151579.34;4939366;29;20041;-73
2023/05/24 01:32:26;;;;;;;8.32;5.78;;;;;;;17.14;75.17;151589.66;4930705;29;20299;-73
2023/05/24 01:34:51;;;;;;;8.95;5.78;;;;;;;17.08;76.40;151576.75;4946730;29;20075;-73
2023/05/24 01:37:17;;;;;;;15.07;6.60;;;;;;;17.12;76.37;151584.50;4929423;29;20099;-73
2023/05/24 01:39:42;;;;;;;9.32;5.57;;;;;;;17.08;74.69;151575.47;4944548;29;20387;-71
2023/05/24 01:42:42;;;;;;;7.20;5.10;;;;;;;16.90;75.23;151530.34;4957031;29;20032;-72
2023/05/24 01:45:38;;;;;;;10.88;6.07;;;;;;;17.04;75.32;151565.16;4930405;29;20043;-73
2023/05/24 01:48:33;;;;;;;9.50;5.50;;;;;;;16.98;75.04;151549.72;4946097;29;20039;-72
2023/05/24 01:51:01;;;;;;;9.10;5.70;;;;;;;16.93;74.92;151536.81;4950360;28;20040;-74
2023/05/24 01:53:38;;;;;;;8.50;5.97;;;;;;;17.04;75.45;151566.44;5023861;28;20021;-73
2023/05/24 01:56:05;;;;;;;11.27;6.05;;;;;;;17.02;76.30;151561.28;5045447;28;20025;-73
2023/05/24 01:58:32;;;;;;;8.02;5.63;;;;;;;16.97;75.89;151548.38;5025725;28;20037;-73
2023/05/24 02:00:58;;;;;;;9.05;5.78;;;;;;;17.05;75.08;151569.00;5026065;28;20029;-73
2023/05/24 02:03:24;;;;;;;10.38;6.03;;;;;;;16.85;75.53;151517.44;5025767;28;20032;-74
2023/05/24 02:05:50;;;;;;;6.65;5.13;;;;;;;17.01;75.54;151558.69;5034616;28;20033;-71
2023/05/24 02:08:16;;;;;;;7.50;5.18;;;;;;;16.76;75.54;151495.56;5064633;28;20048;-71
2023/05/24 02:10:42;;;;;;;6.75;5.07;;;;;;;16.95;75.25;151543.25;5045402;28;20029;-71
2023/05/24 02:13:08;;;;;;;7.43;5.05;;;;;;;16.85;75.59;151518.72;5028943;28;20066;-71
2023/05/24 02:15:37;;;;;;;10.43;5.57;;;;;;;16.95;75.78;151541.97;5037488;28;20032;-71
2023/05/24 02:18:03;;;;;;;6.70;5.22;;;;;;;17.01;75.64;151558.69;5045132;28;20029;-73
2023/05/24 02:20:48;;;;;;;8.20;5.13;;;;;;;16.86;76.04;151521.31;5038586;28;20037;-72
2023/05/24 02:23:14;;;;;;;7.97;5.22;;;;;;;16.71;76.94;151483.91;4992688;28;20021;-72
2023/05/24 02:25:40;;;;;;;10.23;5.70;;;;;;;16.90;76.58;151531.66;5045072;28;20021;-73
2023/05/24 02:28:06;;;;;;;8.35;5.18;;;;;;;16.91;76.11;151532.94;5028363;28;20033;-71
2023/05/24 02:30:31;;;;;;;8.73;5.20;;;;;;;16.90;76.58;151530.34;5035791;28;20025;-73
2023/05/24 02:32:57;;;;;;;8.98;5.80;;;;;;;16.94;76.66;151539.41;5020812;28;20026;-71
2023/05/24 02:35:22;;;;;;;5.78;5.03;;;;;;;16.98;76.55;151550.97;5027236;28;20086;-74
2023/05/24 02:37:48;;;;;;;7.57;5.38;;;;;;;16.84;76.84;151516.13;5027202;28;20226;-74
2023/05/24 02:40:13;;;;;;;9.73;5.00;;;;;;;16.87;77.13;151522.59;5035899;28;20038;-73
2023/05/24 02:42:39;;;;;;;7.45;5.30;;;;;;;16.90;77.84;151530.34;5024918;28;20033;-76
2023/05/24 02:45:05;;;;;;;9.45;5.40;;;;;;;17.01;77.15;151557.44;5032790;28;20025;-77
2023/05/24 02:47:31;;;;;;;8.95;5.57;;;;;;;16.97;77.89;151547.13;5042214;28;20091;-75
2023/05/24 02:49:56;;;;;;;8.05;4.50;;;;;;;17.02;77.01;151561.28;5025896;28;20038;-76
2023/05/24 02:52:22;;;;;;;8.80;5.30;;;;;;;16.98;77.17;151549.72;5043350;28;20076;-77
2023/05/24 02:54:49;;;;;;;9.48;5.53;;;;;;;16.93;77.74;151538.13;5030942;28;20141;-75
2023/05/24 02:57:15;;;;;;;7.03;5.55;;;;;;;16.97;77.39;151547.13;5033727;28;20037;-73
2023/05/24 02:59:41;;;;;;;6.30;5.10;;;;;;;17.02;77.91;151561.28;5040396;28;20022;-71
2023/05/24 03:02:06;;;;;;;8.05;5.70;;;;;;;17.07;78.22;151574.19;5024697;28;20310;-71
2023/05/24 03:04:32;;;;;;;8.00;5.10;;;;;;;17.10;77.57;151579.34;5024490;28;20033;-70
2023/05/24 03:06:57;;;;;;;9.82;5.70;;;;;;;17.04;78.31;151566.44;5039175;28;20072;-72
2023/05/24 03:09:23;;;;;;;9.52;5.57;;;;;;;17.05;78.03;151569.00;5034341;28;20053;-72
2023/05/24 03:11:50;;;;;;;8.23;5.70;;;;;;;17.00;79.10;151554.84;5029632;28;20025;-72
2023/05/24 03:14:16;;;;;;;10.15;6.45;;;;;;;16.99;77.99;151552.28;5043216;28;20041;-72
2023/05/24 03:16:41;;;;;;;9.20;5.50;;;;;;;16.85;78.78;151517.44;5024410;28;20032;-72
2023/05/24 03:19:07;;;;;;;8.82;6.13;;;;;;;16.83;78.99;151512.28;5040978;28;20068;-73
2023/05/24 03:21:33;;;;;;;8.25;5.55;;;;;;;16.87;78.35;151522.59;5032742;28;20022;-73
2023/05/24 03:23:58;;;;;;;10.13;5.82;;;;;;;16.86;78.55;151521.31;5024173;28;20195;-72
2023/05/24 03:26:25;;;;;;;7.90;5.75;;;;;;;16.88;77.94;151525.22;5025918;28;20026;-72
2023/05/24 03:28:53;;;;;;;9.15;5.97;;;;;;;16.94;78.02;151540.66;5043712;28;20083;-74
2023/05/24 03:31:19;;;;;;;7.18;5.55;;;;;;;17.06;77.61;151570.34;5026577;28;20037;-71
2023/05/24 03:33:45;;;;;;;9.82;6.20;;;;;;;16.91;78.12;151532.94;5036611;28;20314;-72
2023/05/24 03:36:11;;;;;;;9.15;6.40;;;;;;;17.09;77.24;151578.06;5043604;28;20035;-71
2023/05/24 03:38:36;;;;;;;9.85;6.75;;;;;;;17.03;77.48;151562.56;5040258;28;20036;-71
2023/05/24 03:41:02;;;;;;;7.95;6.50;;;;;;;17.14;77.08;151589.66;5038853;28;20216;-73
2023/05/24 03:43:28;;;;;;;7.10;5.43;;;;;;;17.30;76.83;151629.59;5024795;28;20057;-72
2023/05/24 03:45:53;;;;;;;10.55;6.35;;;;;;;17.26;76.43;151620.59;5023825;28;20030;-73
2023/05/24 03:48:19;;;;;;;10.93;6.32;;;;;;;17.32;75.85;151636.03;5006278;28;20076;-75
2023/05/24 03:50:46;;;;;;;10.60;5.97;;;;;;;17.49;75.57;151677.31;5033384;28;20042;-76
2023/05/24 03:53:11;;;;;;;7.70;6.32;;;;;;;17.36;74.62;151646.34;5006218;28;20029;-74
2023/05/24 03:55:37;;;;;;;10.88;6.22;;;;;;;17.40;75.43;151655.34;5023814;28;20203;-75
2023/05/24 03:58:03;;;;;;;7.28;6.43;;;;;;;17.44;75.03;151665.66;5006208;28;20211;-73
2023/05/24 04:00:28;;;;;;;9.15;5.90;;;;;;;17.48;74.59;151675.97;5023612;28;20030;-75
2023/05/24 04:02:54;;;;;;;7.97;6.47;;;;;;;17.53;75.23;151687.56;5028767;28;20104;-72
2023/05/24 04:05:20;;;;;;;13.00;6.13;;;;;;;17.63;75.23;151712.06;5042357;28;20254;-71
2023/05/24 04:07:46;;;;;;;10.27;5.90;;;;;;;17.84;74.22;151764.94;5023804;28;20054;-71
2023/05/24 04:10:12;;;;;;;7.75;5.75;;;;;;;17.76;73.85;151746.88;5039556;28;20120;-74
2023/05/24 04:12:39;;;;;;;10.82;6.25;;;;;;;17.81;74.31;151758.47;5031723;28;20032;-73
2023/05/24 04:15:06;;;;;;;14.25;6.55;;;;;;;17.92;73.10;151786.91;5030395;28;20033;-73
2023/05/24 04:17:33;;;;;;;12.65;6.50;;;;;;;17.81;73.57;151757.22;5042926;28;20033;-74
2023/05/24 04:20:00;;;;;;;9.20;6.25;;;;;;;18.02;73.04;151810.13;5043095;28;20056;-74
2023/05/24 04:22:25;;;;;;;9.40;5.97;;;;;;;18.11;73.08;151834.63;5022134;28;20069;-71
2023/05/24 04:24:51;;;;;;;11.50;6.25;;;;;;;18.19;72.54;151852.69;5036035;28;20029;-70
2023/05/24 04:27:17;;;;;;;12.27;5.90;;;;;;;18.26;72.23;151870.75;5034487;28;20033;-71
2023/05/24 04:29:48;;;;;;;8.20;5.30;;;;;;;18.04;72.87;151816.59;5022967;28;20072;-73
2023/05/24 04:32:14;;;;;;;12.10;6.05;;;;;;;18.34;71.73;151890.06;5023147;28;20473;-75
2023/05/24 04:34:41;;;;;;;8.45;5.88;;;;;;;18.51;72.04;151932.63;5025230;28;20060;-74
2023/05/24 04:37:07;;;;;;;9.35;5.90;;;;;;;18.69;71.09;151977.81;5027865;28;20030;-72
2023/05/24 04:39:33;;;;;;;8.50;5.55;;;;;;;18.67;70.73;151972.63;5030305;28;20085;-75
2023/05/24 04:41:59;;;;;;;8.52;5.70;;;;;;;18.61;69.90;151958.41;5028423;28;20053;-74
2023/05/24 04:44:26;;;;;;;8.88;5.95;;;;;;;18.71;69.84;151984.25;5041497;28;20318;-73
2023/05/24 04:46:52;;;;;;;7.68;5.40;;;;;;;18.48;70.04;151926.19;5041121;28;20037;-73
2023/05/24 04:49:18;;;;;;;9.57;5.68;;;;;;;18.79;70.75;152004.88;5026081;28;20034;-73
2023/05/24 04:51:45;;;;;;;10.75;5.78;;;;;;;18.75;69.78;151994.53;5022866;28;20034;-73
2023/05/24 04:54:10;;;;;;;9.60;6.05;;;;;;;19.20;69.85;152105.59;5034059;28;20326;-73
2023/05/24 04:56:37;;;;;;;9.18;5.70;;;;;;;19.04;68.44;152066.88;5043952;28;20089;-72
2023/05/24 04:59:04;;;;;;;12.15;5.90;;;;;;;18.77;69.15;151999.72;5026818;28;20049;-71
2023/05/24 05:01:31;;;;;;;10.32;5.60;;;;;;;19.05;69.02;152068.16;5044890;28;20322;-72
2023/05/24 05:03:57;;;;;;;9.70;5.95;;;;;;;19.27;68.52;152123.66;5015635;28;20029;-72
2023/05/24 05:06:23;;;;;;;8.68;6.20;;;;;;;19.25;67.86;152118.47;5037430;28;20057;-73
2023/05/24 05:08:49;;;;;;;7.25;5.70;;;;;;;19.35;67.08;152144.28;5030700;28;20116;-71
2023/05/24 05:11:15;;;;;;;6.68;5.88;;;;;;;19.33;66.90;152137.84;5046953;28;20219;-72
2023/05/24 05:13:41;;;;;;;9.07;5.72;;;;;;;19.23;68.03;152114.59;5039514;28;20366;-73
2023/05/24 05:16:07;;;;;;;12.38;5.80;;;;;;;19.32;67.99;152136.53;5051596;28;20029;-72
2023/05/24 05:18:32;;;;;;;8.10;6.03;;;;;;;19.34;68.10;152141.72;5016734;28;20049;-71
2023/05/24 05:20:58;;;;;;;11.95;6.20;;;;;;;19.03;68.67;152064.28;5031890;28;20133;-74
2023/05/24 05:23:24;;;;;;;9.00;5.63;;;;;;;18.96;68.77;152046.22;5045558;28;20312;-73
2023/05/24 05:25:49;;;;;;;10.35;6.00;;;;;;;18.88;68.95;152026.84;5026584;28;20065;-73
2023/05/24 05:28:16;;;;;;;14.30;6.22;;;;;;;18.86;68.86;152020.38;5024946;28;20036;-74
2023/05/24 05:30:41;;;;;;;11.15;6.95;;;;;;;18.89;69.22;152029.44;5026227;28;20029;-73
2023/05/24 05:33:07;;;;;;;10.82;6.70;;;;;;;18.92;69.07;152035.91;5032805;28;20066;-75
2023/05/24 05:35:32;;;;;;;8.50;6.18;;;;;;;18.87;69.15;152024.28;5044948;28;20029;-73
2023/05/24 05:37:58;;;;;;;9.20;6.03;;;;;;;18.78;69.80;152002.31;5045974;28;20030;-74
2023/05/24 05:40:23;;;;;;;12.60;6.50;;;;;;;18.97;70.02;152048.81;5048937;28;20040;-73
2023/05/24 05:42:49;;;;;;;11.27;5.70;;;;;;;19.20;69.31;152106.88;5066549;28;20024;-74
2023/05/24 05:45:15;;;;;;;11.70;5.47;;;;;;;18.99;68.89;152053.97;5054023;28;20279;-75
2023/05/24 05:47:42;;;;;;;13.80;6.93;;;;;;;18.88;68.47;152026.84;5029361;28;20087;-73
2023/05/24 05:50:07;;;;;;;9.98;6.47;;;;;;;18.88;68.59;152025.56;5027700;28;20100;-74
2023/05/24 05:52:33;;;;;;;11.95;6.18;;;;;;;18.84;68.21;152015.19;5027544;28;20033;-71
2023/05/24 05:54:59;;;;;;;10.82;6.25;;;;;;;18.62;69.57;151961.03;5025725;28;20034;-72
2023/05/24 05:57:25;;;;;;;11.88;6.78;;;;;;;18.58;69.06;151950.69;5034649;28;20306;-71
2023/05/24 05:59:51;;;;;;;13.90;6.55;;;;;;;18.59;69.37;151954.56;5041490;28;20038;-72
2023/05/24 06:02:23;;;;;;;8.43;6.20;;;;;;;18.68;68.28;151976.47;5025759;28;20230;-72
2023/05/24 06:04:49;;;;;;;;;;;;;;;18.62;68.57;151961.03;5025881;28;20030;-72
2023/05/24 06:07:14;;;;;;;10.93;6.18;;;;;;;18.85;68.87;152017.78;5054921;28;20082;-71
2023/05/24 06:09:40;;;;;;;10.50;6.90;;;;;;;18.67;68.62;151973.94;5054427;28;20083;-71
2023/05/24 06:12:06;;;;;;;11.98;6.60;;;;;;;18.56;68.74;151945.56;5039346;28;20207;-72
2023/05/24 06:14:33;;;;;;;11.80;6.20;;;;;;;18.85;68.64;152017.78;5026478;28;20033;-72
2023/05/24 06:16:59;;;;;;;9.55;6.53;;;;;;;19.10;68.51;152081.06;5043438;28;20096;-74
2023/05/24 06:19:25;;;;;;;9.68;6.57;;;;;;;19.09;67.56;152079.75;5035207;28;20040;-74
2023/05/24 06:21:51;;;;;;;10.75;6.78;;;;;;;19.09;67.79;152079.75;5025305;28;20093;-72
2023/05/24 06:24:20;;;;;;;11.13;6.50;;;;;;;19.02;67.13;152061.69;5014941;28;20037;-72
2023/05/24 06:26:50;;;;;;;8.43;6.40;;;;;;;19.27;67.91;152123.66;5044688;28;20037;-72
2023/05/24 06:29:18;;;;;;;7.00;6.22;;;;;;;19.32;66.21;152136.53;5041584;28;20022;-69
2023/05/24 06:31:46;;;;;;;9.13;5.85;;;;;;;19.51;66.74;152184.31;5034081;28;20030;-71
2023/05/24 06:34:12;;;;;;;10.38;6.88;;;;;;;19.58;68.06;152202.41;5024867;28;20025;-73
2023/05/24 06:36:41;;;;;;;10.23;6.93;;;;;;;19.57;67.18;152199.81;5034650;28;20033;-72
2023/05/24 06:39:11;;;;;;;9.38;6.38;;;;;;;19.77;66.34;152250.13;5039016;28;20067;-71
2023/05/24 06:41:38;;;;;;;9.88;7.40;;;;;;;19.66;65.88;152221.75;5026571;28;20046;-71
2023/05/24 06:44:04;;;;;;;11.05;7.07;;;;;;;19.53;66.08;152188.19;5043447;28;20030;-72
2023/05/24 06:46:30;;;;;;;10.02;6.40;;;;;;;19.74;66.50;152242.41;5041790;28;20064;-71
2023/05/24 06:48:55;;;;;;;10.68;6.75;;;;;;;19.91;66.58;152285.06;5032024;28;20030;-70
2023/05/24 06:51:21;;;;;;;14.32;6.60;;;;;;;19.70;66.54;152232.06;5024753;28;20174;-72
2023/05/24 06:53:47;;;;;;;12.07;7.15;;;;;;;19.52;66.20;152185.59;5027599;28;20334;-71
2023/05/24 06:56:12;;;;;;;12.90;7.10;;;;;;;19.59;67.07;152203.66;5044012;28;20061;-72
2023/05/24 06:58:38;;;;;;;11.35;6.50;;;;;;;19.62;66.62;152211.41;5025783;28;20030;-72
2023/05/24 07:01:04;;;;;;;9.98;6.28;;;;;;;19.69;67.06;152229.47;5025016;28;20021;-72
2023/05/24 07:03:30;;;;;;;11.13;7.30;;;;;;;19.37;67.09;152148.16;5035247;28;20030;-72
2023/05/24 07:05:56;;;;;;;16.23;7.35;;;;;;;19.58;66.86;152202.41;5030425;28;20275;-71
2023/05/24 07:08:23;;;;;;;7.85;6.80;;;;;;;19.58;67.98;152202.41;5054960;28;20033;-71
2023/05/24 07:10:49;;;;;;;10.93;7.45;;;;;;;19.66;67.02;152221.75;5043451;28;20064;-71
2023/05/24 07:13:15;;;;;;;12.10;6.95;;;;;;;19.55;67.23;152194.59;5029326;28;20303;-70
2023/05/24 07:15:41;;;;;;;13.02;6.97;;;;;;;19.14;67.54;152092.69;5033419;28;20305;-70
2023/05/24 07:18:07;;;;;;;11.95;6.93;;;;;;;19.17;68.01;152099.13;5043615;28;20028;-70
2023/05/24 07:20:32;;;;;;;10.82;7.53;;;;;;;19.13;68.36;152090.09;5042812;28;20033;-73
2023/05/24 07:22:59;;;;;;;10.57;6.80;;;;;;;19.25;67.96;152118.47;5024073;28;20034;-70
2023/05/24 07:25:24;;;;;;;10.40;7.15;;;;;;;19.36;68.22;152146.88;5018564;28;20030;-72
2023/05/24 07:27:50;;;;;;;12.57;7.00;;;;;;;19.56;67.72;152195.94;5023706;28;20117;-71
2023/05/24 07:30:16;;;;;;;10.27;6.28;;;;;;;19.65;68.99;152219.16;5043029;28;20039;-73
2023/05/24 07:32:41;;;;;;;8.80;6.10;;;;;;;19.39;67.09;152154.59;5041075;28;20025;-70
2023/05/24 07:35:08;;;;;;;14.00;7.13;;;;;;;19.51;67.56;152183.00;5015583;28;20040;-72
2023/05/24 07:37:33;;;;;;;12.88;6.47;;;;;;;19.59;67.25;152203.66;5033470;28;20309;-74
2023/05/24 07:39:59;;;;;;;16.83;7.03;;;;;;;19.62;67.20;152211.41;5029193;28;20033;-73
2023/05/24 07:42:24;;;;;;;12.98;6.55;;;;;;;19.66;67.02;152221.75;5036110;28;20029;-72
2023/05/24 07:44:50;;;;;;;12.73;6.32;;;;;;;19.87;67.10;152274.72;5050626;28;20044;-72
2023/05/24 07:47:15;;;;;;;11.57;6.40;;;;;;;19.89;67.26;152278.59;5029600;28;20029;-71
2023/05/24 07:49:41;;;;;;;13.93;6.80;;;;;;;19.87;67.08;152273.44;5036605;28;20025;-71
2023/05/24 07:52:07;;;;;;;13.25;7.90;;;;;;;20.05;67.53;152319.94;5055787;28;20052;-71
2023/05/24 07:54:32;;;;;;;11.20;6.65;;;;;;;19.94;66.73;152291.53;5053950;28;20193;-72
2023/05/24 07:56:58;;;;;;;8.15;6.55;;;;;;;20.11;66.82;152334.09;5034146;28;20040;-71
2023/05/24 07:59:24;;;;;;;10.35;6.13;;;;;;;20.24;67.10;152367.69;5041891;28;20032;-72
2023/05/24 08:01:49;;;;;;;15.68;7.55;;;;;;;20.14;68.26;152341.88;5023505;28;20037;-72
2023/05/24 08:04:15;;;;;;;9.60;6.80;;;;;;;20.27;65.93;152375.44;5037464;28;20080;-70
2023/05/24 08:06:41;;;;;;;12.40;6.35;;;;;;;20.46;67.07;152423.19;5050602;28;20033;-72
2023/05/24 08:09:07;;;;;;;13.52;7.28;;;;;;;20.50;66.07;152433.53;5057799;28;20044;-73
2023/05/24 08:11:33;;;;;;;11.60;7.03;;;;;;;20.19;65.44;152354.75;5042209;28;20316;-73
2023/05/24 08:13:59;;;;;;;11.25;6.50;;;;;;;20.46;65.71;152423.19;5023332;28;20030;-72
2023/05/24 08:16:24;;;;;;;15.23;7.28;;;;;;;20.45;65.85;152420.66;5038684;28;20342;-73
2023/05/24 08:18:50;;;;;;;11.13;6.50;;;;;;;20.42;66.33;152411.59;5042433;28;20092;-72
2023/05/24 08:21:16;;;;;;;12.27;6.72;;;;;;;20.52;65.82;152437.41;5036548;28;20246;-72
2023/05/24 08:23:42;;;;;;;9.98;7.28;;;;;;;20.65;65.39;152471.03;5024411;28;20337;-76
2023/05/24 08:26:08;;;;;;;9.63;6.43;;;;;;;20.79;66.79;152505.97;5024293;28;20053;-73
2023/05/24 08:28:34;;;;;;;10.95;6.82;;;;;;;20.92;65.36;152538.25;5025066;28;20041;-72
2023/05/24 08:30:59;;;;;;;13.38;6.22;;;;;;;20.90;64.49;152533.06;5033238;28;20207;-74
2023/05/24 08:33:25;;;;;;;8.52;6.07;;;;;;;20.99;65.25;152555.03;5030119;28;20495;-73
2023/05/24 08:35:51;;;;;;;9.85;7.40;;;;;;;21.06;66.10;152573.09;5039674;28;20067;-71
2023/05/24 08:38:17;;;;;;;11.90;6.50;;;;;;;20.80;64.26;152508.50;5024092;28;20041;-72
2023/05/24 08:40:43;;;;;;;13.27;6.90;;;;;;;20.86;63.72;152524.06;5031692;28;20115;-71
2023/05/24 08:43:11;;;;;;;11.00;7.15;;;;;;;20.69;63.35;152481.41;5030695;28;20029;-71
2023/05/24 08:45:38;;;;;;;12.18;6.70;;;;;;;20.81;65.44;152511.13;5033261;28;20037;-72
2023/05/24 08:48:05;;;;;;;12.43;7.38;;;;;;;20.93;65.42;152539.53;5031230;28;20040;-73
2023/05/24 08:50:32;;;;;;;12.98;7.05;;;;;;;20.99;64.30;152555.03;5011520;28;20318;-72
2023/05/24 08:52:58;;;;;;;12.75;7.35;;;;;;;20.93;65.46;152540.81;5027251;28;20146;-73
2023/05/24 08:55:24;;;;;;;13.52;7.03;;;;;;;20.95;63.29;152546.00;5025964;28;20038;-70
2023/05/24 08:57:51;;;;;;;8.27;6.28;;;;;;;21.18;63.55;152604.13;5027610;28;20046;-70
2023/05/24 09:00:18;;;;;;;10.88;6.88;;;;;;;21.17;63.36;152601.53;5031141;28;20057;-70
2023/05/24 09:02:45;;;;;;;12.60;7.38;;;;;;;21.01;62.71;152561.50;5033001;28;20315;-71
2023/05/24 09:05:16;;;;;;;7.10;5.95;;;;;;;21.12;62.74;152587.31;5004903;28;20208;-70
2023/05/24 09:07:45;;;;;;;10.73;6.82;;;;;;;21.10;62.60;152582.19;5041097;28;20053;-70
2023/05/24 09:10:11;;;;;;;10.55;6.55;;;;;;;21.23;62.83;152615.75;5034328;28;20058;-69
2023/05/24 09:12:38;;;;;;;10.88;6.53;;;;;;;21.06;63.22;152573.09;5033805;28;20038;-69
2023/05/24 09:15:05;;;;;;;10.98;6.10;;;;;;;21.33;64.03;152640.31;5039202;28;20105;-70
2023/05/24 09:17:31;;;;;;;10.00;6.30;;;;;;;21.49;63.51;152681.69;5052735;28;20056;-68
2023/05/24 09:19:58;;;;;;;10.27;6.15;;;;;;;21.57;63.71;152701.13;5044122;28;20052;-70
2023/05/24 09:22:27;;;;;;;10.18;5.90;;;;;;;21.50;61.77;152682.97;5030272;28;20026;-72
2023/05/24 09:24:57;;;;;;;7.65;6.13;;;;;;;21.55;62.77;152695.97;5023188;28;20097;-70
2023/05/24 09:27:22;;;;;;;10.30;6.55;;;;;;;21.47;61.91;152676.50;5047724;28;20329;-70
2023/05/24 09:29:50;;;;;;;12.35;6.80;;;;;;;21.47;61.52;152675.22;5036268;28;20036;-69
2023/05/24 09:32:17;;;;;;;9.98;6.03;;;;;;;21.53;61.19;152690.78;5011872;28;20034;-70
2023/05/24 09:34:47;;;;;;;9.82;5.63;;;;;;;21.61;61.53;152710.19;5027155;28;20392;-72
2023/05/24 09:37:15;;;;;;;6.75;5.15;;;;;;;21.66;61.76;152723.06;5027158;28;20037;-70
2023/05/24 09:39:49;;;;;;;11.75;5.35;;;;;;;21.84;61.52;152768.34;5039899;28;20030;-71
2023/05/24 09:42:16;;;;;;;9.75;5.45;;;;;;;21.73;59.62;152741.16;5039920;28;20033;-70
2023/05/24 09:44:43;;;;;;;9.23;5.03;;;;;;;21.87;60.78;152777.38;5023120;28;20034;-70
2023/05/24 09:47:11;;;;;;;7.50;4.80;;;;;;;21.87;59.62;152777.38;5025569;28;20142;-70
2023/05/24 09:49:37;;;;;;;7.70;5.13;;;;;;;21.98;59.57;152803.25;5021196;28;20336;-70
2023/05/24 09:52:03;;;;;;;9.15;4.97;;;;;;;22.01;59.82;152812.28;5038465;28;20056;-69
2023/05/24 09:54:31;;;;;;;11.55;5.30;;;;;;;22.12;59.06;152839.47;5045438;28;20030;-69
2023/05/24 09:57:03;;;;;;;10.15;5.75;;;;;;;22.20;58.64;152860.16;5042286;28;20050;-69
2023/05/24 09:59:31;;;;;;;;;;;;;;;22.35;58.58;152897.69;5025794;28;20081;-70
2023/05/24 10:02:09;;;;;;;9.90;5.47;;;;;;;22.31;57.92;152887.28;5040344;28;19920;-69
2023/05/24 10:04:35;;;;;;;8.52;4.80;;;;;;;22.41;58.62;152911.91;5041164;28;20410;-75
2023/05/24 10:07:01;;;;;;;8.15;4.97;;;;;;;22.36;57.77;152898.97;5044972;28;20033;-75
2023/05/24 10:09:32;;;;;;;12.07;5.03;;;;;;;22.55;59.13;152948.13;5045423;28;20059;-74
2023/05/24 10:12:07;;;;;;;8.30;5.35;;;;;;;22.43;58.23;152915.78;5042272;28;20052;-73
2023/05/24 10:14:37;;;;;;;10.32;4.90;;;;;;;22.64;58.99;152968.81;5025119;28;20065;-74
2023/05/24 10:17:06;;;;;;;14.40;5.57;;;;;;;22.49;57.90;152931.28;5025245;28;20038;-75
2023/05/24 10:19:33;;;;;;;9.23;4.90;;;;;;;22.74;58.39;152994.69;5025288;28;20034;-74
2023/05/24 10:22:00;;;;;;;12.30;5.30;;;;;;;22.62;58.51;152963.63;5024073;28;20033;-74
2023/05/24 10:24:35;;;;;;;10.90;4.80;;;;;;;22.46;57.65;152923.53;5031461;28;20045;-74
2023/05/24 10:27:06;;;;;;;8.38;4.75;;;;;;;22.52;57.56;152940.38;5041755;28;20037;-75
2023/05/24 10:29:31;;;;;;;10.57;5.18;;;;;;;22.50;57.87;152935.22;5024697;28;20029;-73
2023/05/24 10:31:58;;;;;;;8.68;4.95;;;;;;;22.67;58.18;152977.84;5024878;28;20026;-73
2023/05/24 10:34:25;;;;;;;9.05;4.65;;;;;;;22.87;58.45;153027.03;5024746;28;20030;-73
2023/05/24 10:36:51;;;;;;;11.60;5.47;;;;;;;22.83;57.59;153018.00;5016805;28;20041;-72
2023/05/24 10:39:21;;;;;;;8.15;4.93;;;;;;;22.66;56.20;152973.97;5052614;28;20033;-71
2023/05/24 10:41:47;;;;;;;8.73;5.10;;;;;;;22.68;56.17;152979.19;5025370;28;20036;-70
2023/05/24 10:44:17;;;;;;;7.35;4.68;;;;;;;22.74;56.84;152994.69;5044236;28;20029;-74
2023/05/24 10:47:13;;;;;;;8.25;4.65;;;;;;;22.56;55.18;152949.41;5027261;28;20109;-74
2023/05/24 10:50:09;;;;;;;8.85;5.18;;;;;;;22.52;56.74;152940.38;5030899;28;20111;-71
2023/05/24 10:52:35;;;;;;;8.95;4.90;;;;;;;22.49;56.54;152931.28;5027190;28;20042;-73
2023/05/24 10:55:09;;;;;;;8.32;5.13;;;;;;;22.45;57.48;152921.00;5024709;28;20097;-73
2023/05/24 10:57:35;;;;;;;8.43;5.18;;;;;;;22.50;57.76;152935.22;5033261;28;20122;-74
2023/05/24 11:00:21;;;;;;;11.48;5.93;;;;;;;22.54;57.78;152945.53;5029222;28;20400;-72
2023/05/24 11:02:50;;;;;;;7.85;4.57;;;;;;;22.39;57.76;152908.03;5007363;28;20089;-73
2023/05/24 11:05:17;;;;;;;9.45;5.28;;;;;;;22.41;57.16;152911.91;5019805;28;20101;-72
2023/05/24 11:07:43;;;;;;;9.02;5.18;;;;;;;22.38;58.06;152905.44;5030111;28;20065;-72
2023/05/24 11:10:15;;;;;;;9.70;5.28;;;;;;;22.35;57.47;152897.69;5014210;28;20223;-73
2023/05/24 11:12:43;;;;;;;8.15;4.50;;;;;;;22.43;58.68;152917.06;5043404;28;20291;-71
2023/05/24 11:15:10;;;;;;;8.48;4.60;;;;;;;22.35;58.37;152897.69;4993849;28;20129;-74
2023/05/24 11:18:12;;;;;;;7.38;5.22;;;;;;;22.17;58.39;152852.34;5043432;28;20017;-72
2023/05/24 11:20:40;;;;;;;9.60;5.70;;;;;;;22.02;59.12;152813.59;5043304;28;20045;-70
2023/05/24 11:23:10;;;;;;;10.38;5.60;;;;;;;22.20;58.58;152860.16;5024526;28;20076;-71
2023/05/24 11:25:37;;;;;;;6.93;4.93;;;;;;;22.24;58.17;152869.19;5039824;28;20042;-71